sensor_id;sensor_type;location;lat;lon;timestamp;pressure;altitude;pressure_sealevel;temperature;humidity
59337;BME280;45115;52.002;4.686;2023-07-28T00:01:39;100467.06;;;18.51;100.00
59337;BME280;45115;52.002;4.686;2023-07-28T00:04:06;100465.09;;;18.45;100.00
59337;BME280;45115;52.002;4.686;2023-07-28T00:06:35;100474.94;;;18.47;100.00
59337;BME280;45115;52.002;4.686;2023-07-28T00:09:01;100473.00;;;18.48;100.00
59337;BME280;45115;52.002;4.686;2023-07-28T00:11:28;100476.00;;;18.46;100.00
59337;BME280;45115;52.002;4.686;2023-07-28T00:13:56;100478.56;;;18.48;100.00
59337;BME280;45115;52.002;4.686;2023-07-28T00:16:23;100476.66;;;18.48;100.00
59337;BME280;45115;52.002;4.686;2023-07-28T00:18:49;100472.63;;;18.51;100.00
59337;BME280;45115;52.002;4.686;2023-07-28T00:21:16;100472.34;;;18.46;100.00
59337;BME280;45115;52.002;4.686;2023-07-28T00:23:43;100476.84;;;18.47;100.00
59337;BME280;45115;52.002;4.686;2023-07-28T00:26:09;100476.44;;;18.50;100.00
59337;BME280;45115;52.002;4.686;2023-07-28T00:28:36;100475.78;;;18.48;100.00
59337;BME280;45115;52.002;4.686;2023-07-28T00:31:04;100472.19;;;18.47;100.00
59337;BME280;45115;52.002;4.686;2023-07-28T00:33:31;100471.09;;;18.48;100.00
59337;BME280;45115;52.002;4.686;2023-07-28T00:35:57;100469.41;;;18.47;100.00
59337;BME280;45115;52.002;4.686;2023-07-28T00:38:24;100480.06;;;18.50;100.00
59337;BME280;45115;52.002;4.686;2023-07-28T00:40:51;100466.63;;;18.47;100.00
59337;BME280;45115;52.002;4.686;2023-07-28T00:43:18;100481.53;;;18.46;100.00
59337;BME280;45115;52.002;4.686;2023-07-28T00:45:45;100475.13;;;18.46;100.00
59337;BME280;45115;52.002;4.686;2023-07-28T00:48:14;100471.75;;;18.50;100.00
59337;BME280;45115;52.002;4.686;2023-07-28T00:50:42;100477.91;;;18.46;100.00
59337;BME280;45115;52.002;4.686;2023-07-28T00:53:11;100477.72;;;18.47;100.00
59337;BME280;45115;52.002;4.686;2023-07-28T00:55:39;100480.28;;;18.49;100.00
59337;BME280;45115;52.002;4.686;2023-07-28T00:58:05;100478.16;;;18.51;100.00
59337;BME280;45115;52.002;4.686;2023-07-28T01:00:34;100480.06;;;18.50;100.00
59337;BME280;45115;52.002;4.686;2023-07-28T01:03:01;100478.56;;;18.48;100.00
59337;BME280;45115;52.002;4.686;2023-07-28T01:05:34;100478.31;;;18.43;100.00
59337;BME280;45115;52.002;4.686;2023-07-28T01:08:06;100477.06;;;18.45;100.00
59337;BME280;45115;52.002;4.686;2023-07-28T01:10:38;100482.66;;;18.52;100.00
59337;BME280;45115;52.002;4.686;2023-07-28T01:13:05;100481.34;;;18.54;100.00
59337;BME280;45115;52.002;4.686;2023-07-28T01:15:32;100479.44;;;18.55;100.00
59337;BME280;45115;52.002;4.686;2023-07-28T01:17:58;100482.84;;;18.50;100.00
59337;BME280;45115;52.002;4.686;2023-07-28T01:20:29;100479.00;;;18.51;100.00
59337;BME280;45115;52.002;4.686;2023-07-28T01:23:08;100480.50;;;18.47;100.00
59337;BME280;45115;52.002;4.686;2023-07-28T01:25:46;100477.75;;;18.54;100.00
59337;BME280;45115;52.002;4.686;2023-07-28T01:28:15;100483.72;;;18.51;100.00
59337;BME280;45115;52.002;4.686;2023-07-28T01:30:43;100482.84;;;18.50;100.00
59337;BME280;45115;52.002;4.686;2023-07-28T01:33:09;100481.34;;;18.54;100.00
59337;BME280;45115;52.002;4.686;2023-07-28T01:35:37;100481.34;;;18.54;100.00
59337;BME280;45115;52.002;4.686;2023-07-28T01:38:03;100477.97;;;18.52;100.00
59337;BME280;45115;52.002;4.686;2023-07-28T01:40:30;100474.31;;;18.52;100.00
59337;BME280;45115;52.002;4.686;2023-07-28T01:42:57;100476.03;;;18.53;100.00
59337;BME280;45115;52.002;4.686;2023-07-28T01:45:25;100477.34;;;18.57;100.00
59337;BME280;45115;52.002;4.686;2023-07-28T01:47:52;100482.88;;;18.57;100.00
59337;BME280;45115;52.002;4.686;2023-07-28T01:50:19;100487.78;;;18.55;100.00
59337;BME280;45115;52.002;4.686;2023-07-28T01:52:45;100490.13;;;18.58;100.00
59337;BME280;45115;52.002;4.686;2023-07-28T01:55:12;100487.19;;;18.59;100.00
59337;BME280;45115;52.002;4.686;2023-07-28T01:57:39;100482.66;;;18.58;100.00
59337;BME280;45115;52.002;4.686;2023-07-28T02:00:07;100486.97;;;18.61;100.00
59337;BME280;45115;52.002;4.686;2023-07-28T02:02:41;100479.91;;;18.65;100.00
59337;BME280;45115;52.002;4.686;2023-07-28T02:05:08;100483.34;;;18.67;100.00
59337;BME280;45115;52.002;4.686;2023-07-28T02:07:34;100468.78;;;18.58;100.00
59337;BME280;45115;52.002;4.686;2023-07-28T02:10:01;100473.53;;;18.64;100.00
59337;BME280;45115;52.002;4.686;2023-07-28T02:12:28;100474.59;;;18.63;100.00
59337;BME280;45115;52.002;4.686;2023-07-28T02:14:54;100477.81;;;18.67;100.00
59337;BME280;45115;52.002;4.686;2023-07-28T02:17:21;100477.81;;;18.67;100.00
59337;BME280;45115;52.002;4.686;2023-07-28T02:19:49;100473.78;;;18.69;100.00
59337;BME280;45115;52.002;4.686;2023-07-28T02:22:16;100472.88;;;18.62;100.00
59337;BME280;45115;52.002;4.686;2023-07-28T02:24:42;100475.00;;;18.60;100.00
59337;BME280;45115;52.002;4.686;2023-07-28T02:27:09;100472.44;;;18.59;100.00
59337;BME280;45115;52.002;4.686;2023-07-28T02:29:36;100475.88;;;18.67;100.00
59337;BME280;45115;52.002;4.686;2023-07-28T02:32:02;100470.34;;;18.67;100.00
59337;BME280;45115;52.002;4.686;2023-07-28T02:34:29;100470.09;;;18.62;100.00
59337;BME280;45115;52.002;4.686;2023-07-28T02:36:57;100473.75;;;18.63;100.00
59337;BME280;45115;52.002;4.686;2023-07-28T02:39:24;100482.50;;;18.66;100.00
59337;BME280;45115;52.002;4.686;2023-07-28T02:41:50;100481.66;;;18.66;100.00
59337;BME280;45115;52.002;4.686;2023-07-28T02:44:17;100481.44;;;18.67;100.00
59337;BME280;45115;52.002;4.686;2023-07-28T02:46:44;100487.66;;;18.69;100.00
59337;BME280;45115;52.002;4.686;2023-07-28T02:49:11;100488.75;;;18.75;100.00
59337;BME280;45115;52.002;4.686;2023-07-28T02:51:38;100485.09;;;18.68;100.00
59337;BME280;45115;52.002;4.686;2023-07-28T02:54:06;100490.41;;;18.69;100.00
59337;BME280;45115;52.002;4.686;2023-07-28T02:56:33;100487.66;;;18.69;100.00
59337;BME280;45115;52.002;4.686;2023-07-28T02:59:03;100485.88;;;18.62;100.00
59337;BME280;45115;52.002;4.686;2023-07-28T03:01:30;100488.44;;;18.63;100.00
59337;BME280;45115;52.002;4.686;2023-07-28T03:03:58;100485.22;;;18.60;100.00
59337;BME280;45115;52.002;4.686;2023-07-28T03:06:25;100493.75;;;18.58;100.00
59337;BME280;45115;52.002;4.686;2023-07-28T03:08:52;100492.66;;;18.53;100.00
59337;BME280;45115;52.002;4.686;2023-07-28T03:11:46;100500.78;;;18.54;100.00
59337;BME280;45115;52.002;4.686;2023-07-28T03:14:13;100501.63;;;18.55;100.00
59337;BME280;45115;52.002;4.686;2023-07-28T03:16:40;100500.78;;;18.54;100.00
59337;BME280;45115;52.002;4.686;2023-07-28T03:19:07;100498.22;;;18.53;100.00
59337;BME280;45115;52.002;4.686;2023-07-28T03:21:34;100499.28;;;18.52;100.00
59337;BME280;45115;52.002;4.686;2023-07-28T03:24:01;100511.25;;;18.52;100.00
59337;BME280;45115;52.002;4.686;2023-07-28T03:26:28;100502.06;;;18.52;100.00
59337;BME280;45115;52.002;4.686;2023-07-28T03:28:56;100496.31;;;18.53;100.00
59337;BME280;45115;52.002;4.686;2023-07-28T03:31:22;100501.63;;;18.55;100.00
59337;BME280;45115;52.002;4.686;2023-07-28T03:33:49;100503.13;;;18.51;100.00
59337;BME280;45115;52.002;4.686;2023-07-28T03:36:16;100504.22;;;18.56;100.00
59337;BME280;45115;52.002;4.686;2023-07-28T03:38:44;100508.28;;;18.60;100.00
59337;BME280;45115;52.002;4.686;2023-07-28T03:41:11;100510.19;;;18.60;100.00
59337;BME280;45115;52.002;4.686;2023-07-28T03:43:38;100505.72;;;18.59;100.00
59337;BME280;45115;52.002;4.686;2023-07-28T03:46:06;100515.09;;;18.58;100.00
59337;BME280;45115;52.002;4.686;2023-07-28T03:48:33;100504.88;;;18.58;100.00
59337;BME280;45115;52.002;4.686;2023-07-28T03:50:59;100513.44;;;18.63;100.00
59337;BME280;45115;52.002;4.686;2023-07-28T03:53:26;100510.84;;;18.62;100.00
59337;BME280;45115;52.002;4.686;2023-07-28T03:55:53;100514.94;;;18.66;100.00
59337;BME280;45115;52.002;4.686;2023-07-28T03:58:23;100518.59;;;18.66;100.00
59337;BME280;45115;52.002;4.686;2023-07-28T04:00:50;100518.31;;;18.61;100.00
59337;BME280;45115;52.002;4.686;2023-07-28T04:03:18;100526.47;;;18.63;100.00
59337;BME280;45115;52.002;4.686;2023-07-28T04:05:44;100526.91;;;18.66;100.00
59337;BME280;45115;52.002;4.686;2023-07-28T04:08:11;100529.47;;;18.68;100.00
59337;BME280;45115;52.002;4.686;2023-07-28T04:10:39;100528.63;;;18.67;100.00
59337;BME280;45115;52.002;4.686;2023-07-28T04:13:05;100529.47;;;18.68;100.00
59337;BME280;45115;52.002;4.686;2023-07-28T04:15:32;100523.94;;;18.68;100.00
59337;BME280;45115;52.002;4.686;2023-07-28T04:17:59;100530.31;;;18.68;100.00
59337;BME280;45115;52.002;4.686;2023-07-28T04:20:27;100529.94;;;18.71;100.00
59337;BME280;45115;52.002;4.686;2023-07-28T04:22:53;100530.38;;;18.75;100.00
59337;BME280;45115;52.002;4.686;2023-07-28T04:25:20;100529.50;;;18.74;100.00
59337;BME280;45115;52.002;4.686;2023-07-28T04:27:47;100525.03;;;18.73;100.00
59337;BME280;45115;52.002;4.686;2023-07-28T04:30:14;100527.38;;;18.76;100.00
59337;BME280;45115;52.002;4.686;2023-07-28T04:32:41;100523.31;;;18.79;100.00
59337;BME280;45115;52.002;4.686;2023-07-28T04:35:13;100527.19;;;18.78;100.00
59337;BME280;45115;52.002;4.686;2023-07-28T04:37:46;100535.50;;;18.78;100.00
59337;BME280;45115;52.002;4.686;2023-07-28T04:40:19;100528.03;;;18.78;100.00
59337;BME280;45115;52.002;4.686;2023-07-28T04:42:46;100534.03;;;18.82;100.00
59337;BME280;45115;52.002;4.686;2023-07-28T04:45:18;100532.09;;;18.82;100.00
59337;BME280;45115;52.002;4.686;2023-07-28T04:47:44;100536.59;;;18.83;100.00
59337;BME280;45115;52.002;4.686;2023-07-28T04:50:12;100538.09;;;18.86;100.00
59337;BME280;45115;52.002;4.686;2023-07-28T04:53:16;100538.16;;;18.92;100.00
59337;BME280;45115;52.002;4.686;2023-07-28T04:56:00;100538.34;;;18.91;100.00
59337;BME280;45115;52.002;4.686;2023-07-28T04:58:28;100540.28;;;18.90;100.00
59337;BME280;45115;52.002;4.686;2023-07-28T05:00:59;100540.25;;;18.84;100.00
59337;BME280;45115;52.002;4.686;2023-07-28T05:03:27;100540.88;;;18.86;100.00
59337;BME280;45115;52.002;4.686;2023-07-28T05:06:03;100533.41;;;18.86;100.00
59337;BME280;45115;52.002;4.686;2023-07-28T05:08:31;100534.28;;;18.87;100.00
59337;BME280;45115;52.002;4.686;2023-07-28T05:10:58;100537.69;;;18.89;100.00
59337;BME280;45115;52.002;4.686;2023-07-28T05:13:27;100540.72;;;18.94;100.00
59337;BME280;45115;52.002;4.686;2023-07-28T05:15:55;100536.25;;;19.00;100.00
59337;BME280;45115;52.002;4.686;2023-07-28T05:18:45;100541.38;;;19.03;100.00
59337;BME280;45115;52.002;4.686;2023-07-28T05:21:28;100536.06;;;19.08;100.00
59337;BME280;45115;52.002;4.686;2023-07-28T05:23:56;100546.09;;;19.09;100.00
59337;BME280;45115;52.002;4.686;2023-07-28T05:26:23;100540.97;;;19.12;100.00
59337;BME280;45115;52.002;4.686;2023-07-28T05:28:50;100548.94;;;19.22;100.00
59337;BME280;45115;52.002;4.686;2023-07-28T05:31:17;100540.59;;;19.22;100.00
59337;BME280;45115;52.002;4.686;2023-07-28T05:33:43;100545.75;;;19.25;100.00
59337;BME280;45115;52.002;4.686;2023-07-28T05:36:10;100557.75;;;19.32;100.00
59337;BME280;45115;52.002;4.686;2023-07-28T05:38:37;100558.38;;;19.27;100.00
59337;BME280;45115;52.002;4.686;2023-07-28T05:41:05;100551.50;;;19.23;100.00
59337;BME280;45115;52.002;4.686;2023-07-28T05:43:32;100551.06;;;19.26;100.00
59337;BME280;45115;52.002;4.686;2023-07-28T05:46:01;100558.84;;;19.31;100.00
59337;BME280;45115;52.002;4.686;2023-07-28T05:48:32;100558.63;;;19.32;100.00
59337;BME280;45115;52.002;4.686;2023-07-28T05:50:58;100562.72;;;19.36;100.00
59337;BME280;45115;52.002;4.686;2023-07-28T05:53:25;100557.81;;;19.38;100.00
59337;BME280;45115;52.002;4.686;2023-07-28T05:55:58;100561.19;;;19.34;100.00
59337;BME280;45115;52.002;4.686;2023-07-28T05:58:29;100566.31;;;19.37;100.00
59337;BME280;45115;52.002;4.686;2023-07-28T06:00:56;100574.03;;;19.35;100.00
59337;BME280;45115;52.002;4.686;2023-07-28T06:03:52;100576.81;;;19.41;100.00
59337;BME280;45115;52.002;4.686;2023-07-28T06:06:24;100577.69;;;19.42;100.00
59337;BME280;45115;52.002;4.686;2023-07-28T06:08:51;100571.03;;;19.36;100.00
59337;BME280;45115;52.002;4.686;2023-07-28T06:11:18;100579.81;;;19.40;100.00
59337;BME280;45115;52.002;4.686;2023-07-28T06:13:46;100581.31;;;19.42;100.00
59337;BME280;45115;52.002;4.686;2023-07-28T06:16:14;100583.47;;;19.47;100.00
59337;BME280;45115;52.002;4.686;2023-07-28T06:18:40;100591.59;;;19.42;100.00
59337;BME280;45115;52.002;4.686;2023-07-28T06:21:17;100595.84;;;19.44;100.00
59337;BME280;45115;52.002;4.686;2023-07-28T06:23:44;100599.28;;;19.53;100.00
59337;BME280;45115;52.002;4.686;2023-07-28T06:26:11;100596.50;;;19.53;100.00
59337;BME280;45115;52.002;4.686;2023-07-28T06:28:39;100594.38;;;19.48;100.00
59337;BME280;45115;52.002;4.686;2023-07-28T06:31:07;100605.28;;;19.56;100.00
59337;BME280;45115;52.002;4.686;2023-07-28T06:33:35;100619.41;;;19.55;100.00
59337;BME280;45115;52.002;4.686;2023-07-28T06:36:02;100617.28;;;19.63;100.00
59337;BME280;45115;52.002;4.686;2023-07-28T06:38:29;100617.78;;;19.80;100.00
59337;BME280;45115;52.002;4.686;2023-07-28T06:40:55;100621.88;;;19.97;100.00
59337;BME280;45115;52.002;4.686;2023-07-28T06:43:22;100617.59;;;20.01;100.00
59337;BME280;45115;52.002;4.686;2023-07-28T06:45:51;100619.97;;;20.11;100.00
59337;BME280;45115;52.002;4.686;2023-07-28T06:48:19;100618.94;;;20.18;100.00
59337;BME280;45115;52.002;4.686;2023-07-28T06:50:46;100618.09;;;20.31;100.00
59337;BME280;45115;52.002;4.686;2023-07-28T06:53:12;100620.22;;;20.35;100.00
59337;BME280;45115;52.002;4.686;2023-07-28T06:55:39;100627.06;;;20.46;100.00
59337;BME280;45115;52.002;4.686;2023-07-28T06:58:06;100615.75;;;20.54;100.00
59337;BME280;45115;52.002;4.686;2023-07-28T07:00:32;100626.66;;;20.62;99.59
59337;BME280;45115;52.002;4.686;2023-07-28T07:03:00;100631.81;;;20.52;99.77
59337;BME280;45115;52.002;4.686;2023-07-28T07:05:28;100634.16;;;20.55;100.00
59337;BME280;45115;52.002;4.686;2023-07-28T07:07:55;100630.31;;;20.62;99.14
59337;BME280;45115;52.002;4.686;2023-07-28T07:10:22;100643.34;;;20.62;99.21
59337;BME280;45115;52.002;4.686;2023-07-28T07:12:48;100643.56;;;20.47;99.63
59337;BME280;45115;52.002;4.686;2023-07-28T07:15:15;100649.34;;;20.46;100.00
59337;BME280;45115;52.002;4.686;2023-07-28T07:17:42;100649.13;;;20.47;100.00
59337;BME280;45115;52.002;4.686;2023-07-28T07:20:09;100655.13;;;20.38;100.00
59337;BME280;45115;52.002;4.686;2023-07-28T07:22:39;100647.19;;;20.54;100.00
59337;BME280;45115;52.002;4.686;2023-07-28T07:25:06;100656.19;;;20.56;99.77
59337;BME280;45115;52.002;4.686;2023-07-28T07:27:33;100658.97;;;20.56;100.00
59337;BME280;45115;52.002;4.686;2023-07-28T07:30:00;100662.19;;;20.60;99.89
59337;BME280;45115;52.002;4.686;2023-07-28T07:32:26;100661.34;;;20.46;99.91
59337;BME280;45115;52.002;4.686;2023-07-28T07:34:53;100658.09;;;20.56;99.59
59337;BME280;45115;52.002;4.686;2023-07-28T07:37:19;100664.75;;;20.68;99.60
59337;BME280;45115;52.002;4.686;2023-07-28T07:39:47;100661.53;;;20.84;98.86
59337;BME280;45115;52.002;4.686;2023-07-28T07:42:15;100666.66;;;20.93;97.33
59337;BME280;45115;52.002;4.686;2023-07-28T07:44:42;100665.59;;;20.94;96.79
59337;BME280;45115;52.002;4.686;2023-07-28T07:47:13;100671.38;;;20.99;96.65
59337;BME280;45115;52.002;4.686;2023-07-28T07:49:39;100668.34;;;21.21;96.25
59337;BME280;45115;52.002;4.686;2023-07-28T07:52:07;100667.88;;;21.37;93.92
59337;BME280;45115;52.002;4.686;2023-07-28T07:54:33;100669.50;;;21.64;93.66
59337;BME280;45115;52.002;4.686;2023-07-28T07:57:02;100675.00;;;22.21;92.09
59337;BME280;45115;52.002;4.686;2023-07-28T07:59:28;100667.94;;;22.56;89.05
59337;BME280;45115;52.002;4.686;2023-07-28T08:01:57;100674.53;;;22.86;86.47
59337;BME280;45115;52.002;4.686;2023-07-28T08:04:25;100676.03;;;23.68;82.03
59337;BME280;45115;52.002;4.686;2023-07-28T08:06:53;100680.38;;;23.64;82.21
59337;BME280;45115;52.002;4.686;2023-07-28T08:09:20;100683.00;;;23.95;80.28
59337;BME280;45115;52.002;4.686;2023-07-28T08:11:47;100671.63;;;23.42;80.74
59337;BME280;45115;52.002;4.686;2023-07-28T08:14:15;100680.88;;;23.18;82.44
59337;BME280;45115;52.002;4.686;2023-07-28T08:16:42;100672.94;;;22.97;83.66
59337;BME280;45115;52.002;4.686;2023-07-28T08:19:09;100674.25;;;22.94;84.23
59337;BME280;45115;52.002;4.686;2023-07-28T08:21:36;100667.44;;;23.51;80.56
59337;BME280;45115;52.002;4.686;2023-07-28T08:24:03;100678.38;;;23.53;80.61
59337;BME280;45115;52.002;4.686;2023-07-28T08:26:29;100673.16;;;24.22;78.72
59337;BME280;45115;52.002;4.686;2023-07-28T08:28:56;100678.72;;;24.40;76.63
59337;BME280;45115;52.002;4.686;2023-07-28T08:31:24;100678.41;;;24.30;76.98
59337;BME280;45115;52.002;4.686;2023-07-28T08:33:51;100683.84;;;24.43;76.10
59337;BME280;45115;52.002;4.686;2023-07-28T08:36:17;100682.03;;;24.49;75.72
59337;BME280;45115;52.002;4.686;2023-07-28T08:38:44;100680.66;;;25.04;73.15
59337;BME280;45115;52.002;4.686;2023-07-28T08:41:12;100676.28;;;25.31;73.13
59337;BME280;45115;52.002;4.686;2023-07-28T08:43:39;100687.16;;;25.51;71.16
59337;BME280;45115;52.002;4.686;2023-07-28T08:46:05;100685.13;;;24.70;73.03
59337;BME280;45115;52.002;4.686;2023-07-28T08:48:33;100690.38;;;24.67;73.85
59337;BME280;45115;52.002;4.686;2023-07-28T08:51:01;100690.28;;;24.85;74.05
59337;BME280;45115;52.002;4.686;2023-07-28T08:53:29;100693.97;;;24.56;73.83
59337;BME280;45115;52.002;4.686;2023-07-28T08:55:56;100682.50;;;24.46;73.92
59337;BME280;45115;52.002;4.686;2023-07-28T08:58:23;100686.06;;;24.53;73.76
59337;BME280;45115;52.002;4.686;2023-07-28T09:00:51;100696.00;;;24.78;72.64
59337;BME280;45115;52.002;4.686;2023-07-28T09:03:18;100685.22;;;24.64;72.11
59337;BME280;45115;52.002;4.686;2023-07-28T09:05:47;100692.38;;;25.01;72.19
59337;BME280;45115;52.002;4.686;2023-07-28T09:08:14;100688.72;;;25.00;72.53
59337;BME280;45115;52.002;4.686;2023-07-28T09:10:42;100687.38;;;25.03;70.96
59337;BME280;45115;52.002;4.686;2023-07-28T09:13:10;100691.53;;;25.00;72.70
59337;BME280;45115;52.002;4.686;2023-07-28T09:15:37;100687.50;;;25.19;70.65
59337;BME280;45115;52.002;4.686;2023-07-28T09:18:07;100686.06;;;25.17;71.83
59337;BME280;45115;52.002;4.686;2023-07-28T09:20:36;100700.25;;;24.69;72.19
59337;BME280;45115;52.002;4.686;2023-07-28T09:23:04;100689.78;;;24.35;73.15
59337;BME280;45115;52.002;4.686;2023-07-28T09:25:33;100693.50;;;24.59;74.42
59337;BME280;45115;52.002;4.686;2023-07-28T09:28:01;100694.38;;;24.29;74.15
59337;BME280;45115;52.002;4.686;2023-07-28T09:30:43;100700.44;;;24.26;75.50
59337;BME280;45115;52.002;4.686;2023-07-28T09:33:10;100703.31;;;24.38;75.09
59337;BME280;45115;52.002;4.686;2023-07-28T09:35:47;100702.44;;;24.38;74.49
59337;BME280;45115;52.002;4.686;2023-07-28T09:38:15;100715.66;;;24.60;73.22
59337;BME280;45115;52.002;4.686;2023-07-28T09:40:43;100710.81;;;24.67;72.72
59337;BME280;45115;52.002;4.686;2023-07-28T09:43:09;100703.19;;;24.45;73.58
59337;BME280;45115;52.002;4.686;2023-07-28T09:45:37;100712.84;;;23.83;75.65
59337;BME280;45115;52.002;4.686;2023-07-28T09:48:06;100712.94;;;23.94;75.60
59337;BME280;45115;52.002;4.686;2023-07-28T09:50:35;100718.06;;;23.97;76.52
59337;BME280;45115;52.002;4.686;2023-07-28T09:53:04;100713.25;;;24.04;74.67
59337;BME280;45115;52.002;4.686;2023-07-28T09:55:33;100709.47;;;24.28;74.51
59337;BME280;45115;52.002;4.686;2023-07-28T09:58:04;100711.84;;;24.13;75.39
59337;BME280;45115;52.002;4.686;2023-07-28T10:00:31;100713.16;;;23.93;75.44
59337;BME280;45115;52.002;4.686;2023-07-28T10:03:00;100721.16;;;24.07;75.55
59337;BME280;45115;52.002;4.686;2023-07-28T10:05:27;100720.41;;;24.00;76.03
59337;BME280;45115;52.002;4.686;2023-07-28T10:07:54;100713.78;;;23.95;76.27
59337;BME280;45115;52.002;4.686;2023-07-28T10:10:22;100723.44;;;23.81;76.60
59337;BME280;45115;52.002;4.686;2023-07-28T10:12:53;100731.69;;;23.58;76.60
59337;BME280;45115;52.002;4.686;2023-07-28T10:15:27;100731.53;;;23.53;78.08
59337;BME280;45115;52.002;4.686;2023-07-28T10:17:55;100733.22;;;23.54;78.08
59337;BME280;45115;52.002;4.686;2023-07-28T10:20:28;100731.13;;;23.49;77.38
59337;BME280;45115;52.002;4.686;2023-07-28T10:23:02;100734.66;;;23.13;78.72
59337;BME280;45115;52.002;4.686;2023-07-28T10:25:32;100734.19;;;23.16;78.90
59337;BME280;45115;52.002;4.686;2023-07-28T10:28:01;100730.19;;;23.12;81.45
59337;BME280;45115;52.002;4.686;2023-07-28T10:30:34;100723.81;;;23.23;80.15
59337;BME280;45115;52.002;4.686;2023-07-28T10:33:02;100730.63;;;23.34;79.98
59337;BME280;45115;52.002;4.686;2023-07-28T10:35:29;100731.13;;;23.67;79.02
59337;BME280;45115;52.002;4.686;2023-07-28T10:37:58;100739.28;;;23.69;77.36
59337;BME280;45115;52.002;4.686;2023-07-28T10:40:28;100734.84;;;23.61;78.37
59337;BME280;45115;52.002;4.686;2023-07-28T10:42:56;100745.72;;;23.69;76.91
59337;BME280;45115;52.002;4.686;2023-07-28T10:45:26;100742.16;;;23.80;77.01
59337;BME280;45115;52.002;4.686;2023-07-28T10:47:54;100741.00;;;24.06;77.29
59337;BME280;45115;52.002;4.686;2023-07-28T10:50:22;100740.00;;;23.82;76.09
59337;BME280;45115;52.002;4.686;2023-07-28T10:52:50;100738.41;;;23.86;76.02
59337;BME280;45115;52.002;4.686;2023-07-28T10:55:18;100745.28;;;24.08;75.92
59337;BME280;45115;52.002;4.686;2023-07-28T10:57:46;100742.84;;;23.94;74.41
59337;BME280;45115;52.002;4.686;2023-07-28T11:00:16;100742.94;;;23.87;74.78
59337;BME280;45115;52.002;4.686;2023-07-28T11:02:44;100746.97;;;24.09;75.02
59337;BME280;45115;52.002;4.686;2023-07-28T11:05:20;100754.75;;;23.89;76.51
59337;BME280;45115;52.002;4.686;2023-07-28T11:07:47;100757.22;;;23.61;76.53
59337;BME280;45115;52.002;4.686;2023-07-28T11:10:14;100752.72;;;23.60;76.19
59337;BME280;45115;52.002;4.686;2023-07-28T11:12:41;100749.06;;;23.78;76.59
59337;BME280;45115;52.002;4.686;2023-07-28T11:15:09;100751.28;;;24.12;75.13
59337;BME280;45115;52.002;4.686;2023-07-28T11:17:38;100755.38;;;24.57;72.41
59337;BME280;45115;52.002;4.686;2023-07-28T11:20:14;100762.44;;;24.89;71.48
59337;BME280;45115;52.002;4.686;2023-07-28T11:22:41;100759.28;;;24.97;71.08
59337;BME280;45115;52.002;4.686;2023-07-28T11:25:08;100760.16;;;25.09;70.20
59337;BME280;45115;52.002;4.686;2023-07-28T11:27:36;100753.81;;;25.02;70.42
59337;BME280;45115;52.002;4.686;2023-07-28T11:30:03;100752.66;;;24.80;70.51
59337;BME280;45115;52.002;4.686;2023-07-28T11:32:30;100751.19;;;24.78;70.08
59337;BME280;45115;52.002;4.686;2023-07-28T11:35:03;100754.38;;;24.81;70.73
59337;BME280;45115;52.002;4.686;2023-07-28T11:37:32;100765.66;;;25.27;69.98
59337;BME280;45115;52.002;4.686;2023-07-28T11:40:01;100755.88;;;25.99;67.03
59337;BME280;45115;52.002;4.686;2023-07-28T11:42:32;100764.69;;;25.91;65.51
59337;BME280;45115;52.002;4.686;2023-07-28T11:45:00;100760.63;;;26.10;66.48
59337;BME280;45115;52.002;4.686;2023-07-28T11:47:27;100760.25;;;26.18;66.22
59337;BME280;45115;52.002;4.686;2023-07-28T11:49:54;100764.94;;;26.41;65.37
59337;BME280;45115;52.002;4.686;2023-07-28T11:52:21;100754.94;;;26.33;63.31
59337;BME280;45115;52.002;4.686;2023-07-28T11:54:49;100763.47;;;26.38;65.54
59337;BME280;45115;52.002;4.686;2023-07-28T11:57:15;100760.47;;;26.28;64.74
59337;BME280;45115;52.002;4.686;2023-07-28T11:59:43;100753.69;;;26.01;64.46
59337;BME280;45115;52.002;4.686;2023-07-28T12:02:10;100758.81;;;25.93;65.69
59337;BME280;45115;52.002;4.686;2023-07-28T12:04:37;100765.66;;;25.97;66.31
59337;BME280;45115;52.002;4.686;2023-07-28T12:07:06;100762.75;;;25.69;65.60
59337;BME280;45115;52.002;4.686;2023-07-28T12:09:48;100762.66;;;25.41;66.49
59337;BME280;45115;52.002;4.686;2023-07-28T12:12:17;100768.13;;;25.59;66.89
59337;BME280;45115;52.002;4.686;2023-07-28T12:14:44;100769.97;;;25.65;66.66
59337;BME280;45115;52.002;4.686;2023-07-28T12:17:13;100772.84;;;25.23;68.45
59337;BME280;45115;52.002;4.686;2023-07-28T12:19:41;100777.09;;;25.03;68.46
59337;BME280;45115;52.002;4.686;2023-07-28T12:22:08;100774.25;;;24.91;69.23
59337;BME280;45115;52.002;4.686;2023-07-28T12:24:35;100763.38;;;25.48;67.92
59337;BME280;45115;52.002;4.686;2023-07-28T12:27:04;100767.53;;;25.45;67.41
59337;BME280;45115;52.002;4.686;2023-07-28T12:29:31;100780.91;;;25.31;67.68
59337;BME280;45115;52.002;4.686;2023-07-28T12:31:57;100776.53;;;25.24;68.85
59337;BME280;45115;52.002;4.686;2023-07-28T12:34:24;100772.88;;;25.58;68.27
59337;BME280;45115;52.002;4.686;2023-07-28T12:36:51;100775.94;;;25.80;66.66
59337;BME280;45115;52.002;4.686;2023-07-28T12:39:17;100775.19;;;25.84;65.88
59337;BME280;45115;52.002;4.686;2023-07-28T12:41:44;100776.00;;;26.19;65.62
59337;BME280;45115;52.002;4.686;2023-07-28T12:44:12;100771.97;;;26.55;64.12
59337;BME280;45115;52.002;4.686;2023-07-28T12:46:39;100771.69;;;26.68;64.05
59337;BME280;45115;52.002;4.686;2023-07-28T12:49:06;100773.44;;;27.19;62.53
59337;BME280;45115;52.002;4.686;2023-07-28T12:51:33;100773.56;;;27.40;61.19